Time;durP1;ratioP1;P1;durP2;ratioP2;P2;SDS_P1;SDS_P2;PMS_P1;PMS_P2;Temp;Humidity;BMP_temperature;BMP_pressure;BME280_temperature;BME280_humidity;BME280_pressure;Samples;Min_cycle;Max_cycle;Signal;HPM_P1;HPM_P2
2022/03/08 00:00:34;;;;;;;165.28;81.17;;;;;;;-0.71;70.03;97548.99;1732582;82;28195;-90
2022/03/08 00:03:04;;;;;;;151.70;78.55;;;;;;;-0.72;70.07;97548.16;1732222;82;25737;-91
2022/03/08 00:05:31;;;;;;;155.75;79.72;;;;;;;-0.72;70.21;97542.85;1699892;84;25710;-91
2022/03/08 00:07:58;;;;;;;157.62;81.67;;;;;;;-0.74;70.21;97538.69;1732795;81;26740;-90
2022/03/08 00:10:26;;;;;;;153.30;79.10;;;;;;;-0.74;70.24;97538.69;1732709;82;25779;-91
2022/03/08 00:12:53;;;;;;;155.40;78.97;;;;;;;-0.76;70.29;97541.96;1732426;82;28276;-90
2022/03/08 00:15:24;;;;;;;158.95;81.10;;;;;;;-0.77;70.40;97537.14;1698292;84;25993;-90
2022/03/08 00:17:53;;;;;;;163.07;80.77;;;;;;;-0.75;70.47;97538.34;1726247;82;25249;-90
2022/03/08 00:20:21;;;;;;;166.22;84.97;;;;;;;-0.72;70.57;97536.71;1732797;82;25986;-90
2022/03/08 00:22:48;;;;;;;168.13;84.83;;;;;;;-0.68;70.56;97543.42;1732637;82;25637;-89
2022/03/08 00:25:15;;;;;;;205.55;90.97;;;;;;;-0.66;70.64;97538.83;1698635;84;27564;-89
2022/03/08 00:27:45;;;;;;;177.32;85.28;;;;;;;-0.71;70.66;97543.69;1724284;82;25719;-90
2022/03/08 00:30:12;;;;;;;176.65;85.92;;;;;;;-0.74;70.65;97540.85;1733416;81;25774;-89
2022/03/08 00:32:38;;;;;;;169.70;82.42;;;;;;;-0.69;70.79;97544.40;1732367;82;26828;-89
2022/03/08 00:35:06;;;;;;;172.00;84.72;;;;;;;-0.66;70.77;97541.48;1699646;83;25783;-89
2022/03/08 00:37:32;;;;;;;165.03;83.82;;;;;;;-0.62;70.78;97534.94;1698607;84;27383;-90
2022/03/08 00:39:59;;;;;;;168.95;85.50;;;;;;;-0.66;70.74;97544.13;1689868;84;25754;-90
2022/03/08 00:42:26;;;;;;;171.72;85.38;;;;;;;-0.66;70.83;97544.13;1674272;85;26314;-90
2022/03/08 00:44:52;;;;;;;167.45;86.90;;;;;;;-0.67;70.90;97547.75;1674693;85;26631;-90
2022/03/08 00:47:19;;;;;;;162.12;83.90;;;;;;;-0.65;71.00;97541.83;1674663;85;25694;-91
2022/03/08 00:49:45;;;;;;;178.12;85.25;;;;;;;-0.64;71.04;97547.48;1674652;84;28231;-90
2022/03/08 00:52:12;;;;;;;175.93;88.47;;;;;;;-0.64;71.05;97543.51;1674445;85;26282;-90
2022/03/08 00:54:39;;;;;;;180.82;87.90;;;;;;;-0.67;71.07;97539.80;1674578;85;25790;-90
2022/03/08 00:57:14;;;;;;;172.15;86.87;;;;;;;-0.66;71.11;97541.48;1674697;85;25984;-90
2022/03/08 00:59:41;;;;;;;177.50;89.45;;;;;;;-0.63;71.11;97544.34;1674744;85;25841;-90
2022/03/08 01:02:07;;;;;;;182.37;89.72;;;;;;;-0.66;71.19;97541.97;1706450;83;28208;-90
2022/03/08 01:04:35;;;;;;;212.48;99.32;;;;;;;-0.64;71.23;97546.64;1717559;82;25731;-90
2022/03/08 01:07:01;;;;;;;205.12;95.20;;;;;;;-0.63;71.24;97545.67;1713166;83;25754;-90
2022/03/08 01:09:28;;;;;;;185.37;89.58;;;;;;;-0.64;71.26;97544.83;1706772;84;25981;-90
2022/03/08 01:11:56;;;;;;;178.60;88.00;;;;;;;-0.63;71.31;97549.16;1706676;84;25760;-91
2022/03/08 01:14:23;;;;;;;116.12;58.48;;;;;;;-0.61;71.31;97545.05;1706832;83;28214;-91
2022/03/08 01:16:50;;;;;;;88.65;48.33;;;;;;;-0.62;71.32;97541.56;1679913;84;26433;-91
2022/03/08 01:19:16;;;;;;;77.72;42.60;;;;;;;-0.66;71.29;97541.48;1711275;83;26356;-91
2022/03/08 01:21:44;;;;;;;75.90;40.23;;;;;;;-0.62;71.38;97550.84;1706505;84;26039;-91
2022/03/08 01:24:10;;;;;;;77.42;42.10;;;;;;;-0.57;71.31;97547.27;1706430;84;25813;-90
2022/03/08 01:26:37;;;;;;;72.92;40.40;;;;;;;-0.55;71.25;97544.48;1674804;85;28161;-90
2022/03/08 01:29:03;;;;;;;77.92;40.78;;;;;;;-0.56;71.31;97547.62;1674495;85;25928;-91
2022/03/08 01:31:30;;;;;;;78.60;39.70;;;;;;;-0.58;71.27;97553.55;1674764;85;25752;-91
2022/03/08 01:33:57;;;;;;;75.08;40.58;;;;;;;-0.60;71.16;97551.52;1676580;85;26193;-91
2022/03/08 01:36:26;;;;;;;75.10;41.10;;;;;;;-0.61;71.29;97547.70;1677253;85;25827;-90
2022/03/08 01:38:53;;;;;;;74.25;39.13;;;;;;;-0.59;71.33;97542.59;1667101;85;27542;-92
2022/03/08 01:41:20;;;;;;;75.95;39.13;;;;;;;-0.58;71.37;97540.77;1666194;84;25288;-91
2022/03/08 01:43:47;;;;;;;64.87;37.33;;;;;;;-0.54;71.45;97548.33;1714142;83;25703;-92
2022/03/08 01:46:15;;;;;;;69.20;37.25;;;;;;;-0.55;71.28;97542.67;1730407;82;26656;-91
2022/03/08 01:48:43;;;;;;;68.17;37.85;;;;;;;-0.56;71.44;97543.64;1737589;81;25739;-89
2022/03/08 01:51:09;;;;;;;66.05;35.63;;;;;;;-0.52;71.55;97532.28;1737655;82;27530;-88
2022/03/08 01:53:39;;;;;;;74.75;36.70;;;;;;;-0.54;71.55;97532.91;1737329;81;25849;-88
2022/03/08 01:56:08;;;;;;;65.30;37.05;;;;;;;-0.61;71.59;97529.14;1737528;82;25787;-89
2022/03/08 01:58:36;;;;;;;65.90;35.88;;;;;;;-0.64;71.80;97534.72;1737719;82;25883;-88
2022/03/08 02:01:05;;;;;;;70.50;36.63;;;;;;;-0.65;71.98;97529.06;1737679;81;25630;-90
2022/03/08 02:03:32;;;;;;;66.77;37.15;;;;;;;-0.65;72.11;97527.25;1737616;82;27466;-90
2022/03/08 02:05:59;;;;;;;64.97;35.13;;;;;;;-0.61;72.29;97527.33;1737563;82;25276;-90
2022/03/08 02:08:26;;;;;;;62.10;35.55;;;;;;;-0.57;72.42;97527.38;1737677;82;25693;-90
2022/03/08 02:10:54;;;;;;;64.32;36.63;;;;;;;-0.55;72.44;97527.25;1737866;82;26109;-91
2022/03/08 02:13:21;;;;;;;71.00;37.05;;;;;;;-0.53;72.51;97520.00;1737630;82;25829;-90
2022/03/08 02:15:50;;;;;;;63.85;36.05;;;;;;;-0.50;72.60;97514.42;1737608;82;28021;-90
2022/03/08 02:18:17;;;;;;;66.22;36.98;;;;;;;-0.50;72.57;97517.08;1737537;82;25731;-91
2022/03/08 02:20:45;;;;;;;64.97;38.50;;;;;;;-0.57;72.70;97516.78;1737568;82;25730;-91
2022/03/08 02:23:12;;;;;;;63.30;34.88;;;;;;;-0.60;72.80;97521.02;1737267;82;26786;-90
2022/03/08 02:25:39;;;;;;;60.90;34.73;;;;;;;-0.61;72.99;97518.05;1737543;82;25752;-90
2022/03/08 02:28:07;;;;;;;64.60;35.90;;;;;;;-0.66;73.03;97520.27;1737551;82;27218;-90
2022/03/08 02:30:34;;;;;;;65.08;34.00;;;;;;;-0.73;73.08;97517.84;1737508;82;25990;-91
2022/03/08 02:33:02;;;;;;;62.27;34.53;;;;;;;-0.77;73.18;97527.03;1737678;82;25795;-90
2022/03/08 02:35:31;;;;;;;65.87;35.58;;;;;;;-0.81;73.44;97522.97;1737543;82;27008;-90
2022/03/08 02:38:02;;;;;;;61.20;35.60;;;;;;;-0.83;73.41;97513.83;1737583;82;25758;-90
2022/03/08 02:40:34;;;;;;;47.93;24.07;;;;;;;-0.87;73.47;97515.09;1708853;82;28012;-90
2022/03/08 02:43:00;;;;;;;65.87;34.35;;;;;;;-0.86;73.65;97511.47;1710171;83;25790;-91
2022/03/08 02:45:27;;;;;;;59.65;34.33;;;;;;;-0.85;73.69;97513.64;1678071;85;26364;-91
2022/03/08 02:47:54;;;;;;;61.20;33.90;;;;;;;-0.88;73.78;97515.23;1678152;85;26135;-90
2022/03/08 02:50:22;;;;;;;67.10;35.50;;;;;;;-0.91;73.69;97510.20;1647459;87;25795;-91
2022/03/08 02:52:52;;;;;;;66.35;34.27;;;;;;;-0.91;73.70;97510.20;1647182;87;28143;-91
2022/03/08 02:55:22;;;;;;;61.73;33.28;;;;;;;-0.93;73.74;97511.66;1647194;86;25748;-90
2022/03/08 02:57:50;;;;;;;58.20;33.20;;;;;;;-0.92;73.71;97513.82;1647715;87;25739;-90
2022/03/08 03:00:20;;;;;;;62.20;33.08;;;;;;;-0.93;73.82;97510.81;1647494;87;26801;-90
2022/03/08 03:02:48;;;;;;;69.75;36.55;;;;;;;-0.94;73.76;97509.98;1647351;87;25919;-90
2022/03/08 03:05:14;;;;;;;67.72;35.13;;;;;;;-0.92;73.81;97513.82;1647322;87;27565;-91
2022/03/08 03:07:42;;;;;;;68.60;35.52;;;;;;;-0.89;73.81;97524.16;1647276;86;25832;-89
2022/03/08 03:10:13;;;;;;;69.22;35.78;;;;;;;-0.87;73.83;97522.21;1647363;87;25760;-90
2022/03/08 03:12:39;;;;;;;71.67;37.78;;;;;;;-0.82;73.84;97519.97;1668705;85;26852;-90
2022/03/08 03:15:10;;;;;;;61.65;34.10;;;;;;;-0.75;73.83;97517.13;1678491;85;25656;-91
2022/03/08 03:17:36;;;;;;;65.55;34.92;;;;;;;-0.70;73.78;97517.53;1678265;85;27424;-90
2022/03/08 03:20:06;;;;;;;64.67;33.58;;;;;;;-0.70;73.76;97521.52;1647271;87;25841;-91
2022/03/08 03:22:33;;;;;;;68.87;35.73;;;;;;;-0.76;73.71;97521.59;1647305;87;25771;-90
2022/03/08 03:25:00;;;;;;;61.58;33.88;;;;;;;-0.74;73.77;97524.11;1647427;86;26220;-91
2022/03/08 03:27:27;;;;;;;61.15;33.67;;;;;;;-0.70;73.73;97529.95;1647470;86;25748;-90
2022/03/08 03:29:54;;;;;;;61.23;33.30;;;;;;;-0.67;73.70;97534.50;1647344;87;27389;-90
2022/03/08 03:32:22;;;;;;;60.35;33.78;;;;;;;-0.66;73.65;97535.34;1647195;87;25819;-90
2022/03/08 03:34:49;;;;;;;67.92;34.75;;;;;;;-0.68;73.67;97540.77;1647526;87;25743;-91
2022/03/08 03:37:16;;;;;;;64.62;34.53;;;;;;;-0.67;73.71;97543.78;1647246;87;26214;-90
2022/03/08 03:39:43;;;;;;;63.73;31.97;;;;;;;-0.64;73.72;97539.53;1647107;87;25794;-91
2022/03/08 03:42:10;;;;;;;62.90;34.50;;;;;;;-0.66;73.62;97543.29;1645345;86;27520;-90
2022/03/08 03:44:36;;;;;;;65.12;34.58;;;;;;;-0.74;73.68;97536.88;1645045;87;25765;-91
2022/03/08 03:47:03;;;;;;;61.00;33.38;;;;;;;-0.77;73.72;97541.61;1645346;87;25709;-91
2022/03/08 03:49:30;;;;;;;59.85;34.13;;;;;;;-0.74;73.79;97549.30;1645315;85;26073;-91
2022/03/08 03:51:56;;;;;;;62.17;33.80;;;;;;;-0.67;73.79;97549.08;1645040;87;25689;-91
2022/03/08 03:54:23;;;;;;;61.73;32.73;;;;;;;-0.62;73.79;97545.54;1645248;85;27611;-91
2022/03/08 03:56:50;;;;;;;64.20;32.10;;;;;;;-0.57;73.70;97543.30;1645145;87;25531;-90
2022/03/08 03:59:17;;;;;;;63.30;33.60;;;;;;;-0.57;73.64;97539.31;1645219;85;25837;-91
2022/03/08 04:01:43;;;;;;;54.38;31.42;;;;;;;-0.55;73.62;97549.30;1645316;87;26318;-91
2022/03/08 04:04:10;;;;;;;58.58;31.45;;;;;;;-0.50;73.62;97550.22;1645201;87;25813;-90
2022/03/08 04:06:37;;;;;;;60.98;32.03;;;;;;;-0.48;73.50;97545.10;1645098;85;27446;-90
2022/03/08 04:09:05;;;;;;;65.90;34.43;;;;;;;-0.45;73.47;97546.64;1645272;87;25709;-92
2022/03/08 04:11:32;;;;;;;65.72;34.30;;;;;;;-0.39;73.41;97544.78;1645271;87;25792;-91
2022/03/08 04:13:59;;;;;;;65.17;33.18;;;;;;;-0.36;73.34;97546.64;1645182;87;26945;-91
2022/03/08 04:16:26;;;;;;;63.23;32.25;;;;;;;-0.33;73.28;97552.64;1646606;85;25326;-91
2022/03/08 04:18:53;;;;;;;63.30;33.45;;;;;;;-0.29;73.25;97554.05;1645296;87;27547;-91
2022/03/08 04:21:19;;;;;;;59.63;32.20;;;;;;;-0.26;73.20;97559.92;1645225;85;25792;-92
2022/03/08 04:23:46;;;;;;;58.13;32.45;;;;;;;-0.24;73.14;97551.31;1645125;87;25792;-92
2022/03/08 04:26:13;;;;;;;62.53;33.53;;;;;;;-0.22;73.08;97554.66;1645206;87;26917;-91
2022/03/08 04:28:39;;;;;;;61.63;32.50;;;;;;;-0.18;73.04;97556.55;1645251;85;25707;-92
2022/03/08 04:31:06;;;;;;;57.35;32.17;;;;;;;-0.17;72.96;97556.91;1645350;87;27628;-91
2022/03/08 04:33:32;;;;;;;62.95;32.70;;;;;;;-0.18;72.86;97560.05;1645273;87;25765;-91
2022/03/08 04:35:59;;;;;;;63.48;32.23;;;;;;;-0.17;72.82;97566.19;1645727;87;25735;-91
2022/03/08 04:38:26;;;;;;;61.90;31.97;;;;;;;-0.16;72.76;97565.22;1666529;85;25983;-92
2022/03/08 04:40:52;;;;;;;55.48;30.52;;;;;;;-0.20;72.71;97569.95;1692120;83;25770;-90
2022/03/08 04:43:19;;;;;;;62.25;33.45;;;;;;;-0.30;72.62;97572.27;1726214;83;27351;-92
2022/03/08 04:45:45;;;;;;;63.63;33.02;;;;;;;-0.34;72.75;97576.16;1685000;85;25845;-91
2022/03/08 04:48:12;;;;;;;61.08;34.85;;;;;;;-0.37;72.72;97583.45;1686556;85;25787;-92
2022/03/08 04:50:40;;;;;;;66.67;33.98;;;;;;;-0.45;72.76;97579.30;1687369;83;26792;-92
2022/03/08 04:53:06;;;;;;;57.00;32.78;;;;;;;-0.48;72.81;97584.87;1687182;85;25829;-91
2022/03/08 04:55:33;;;;;;;61.37;33.28;;;;;;;-0.52;72.85;97584.83;1694607;84;28380;-91
2022/03/08 04:57:59;;;;;;;63.80;34.23;;;;;;;-0.53;72.97;97585.80;1697223;84;25749;-91
2022/03/08 05:00:26;;;;;;;59.73;31.65;;;;;;;-0.57;72.95;97585.71;1697304;84;25237;-90
2022/03/08 05:02:52;;;;;;;60.98;34.40;;;;;;;-0.63;72.99;97585.44;1697168;84;27009;-91
2022/03/08 05:05:19;;;;;;;71.28;37.03;;;;;;;-0.63;73.16;97583.63;1697186;84;25649;-91
2022/03/08 05:07:46;;;;;;;63.45;37.10;;;;;;;-0.54;73.21;97592.56;1697355;84;28095;-91
2022/03/08 05:10:13;;;;;;;68.78;38.00;;;;;;;-0.48;73.18;97590.67;1697224;84;26201;-91
2022/03/08 05:12:40;;;;;;;66.55;37.25;;;;;;;-0.47;73.12;97593.19;1697188;84;25807;-91
2022/03/08 05:15:09;;;;;;;72.05;40.33;;;;;;;-0.45;73.12;97593.89;1697331;84;26127;-91
2022/03/08 05:17:36;;;;;;;83.70;49.30;;;;;;;-0.41;73.11;97600.61;1697208;84;26283;-91
2022/03/08 05:20:05;;;;;;;78.28;48.38;;;;;;;-0.35;73.03;97599.20;1697008;83;28257;-91
2022/03/08 05:22:31;;;;;;;80.05;47.05;;;;;;;-0.31;72.96;97599.28;1697224;84;25275;-89
2022/03/08 05:24:58;;;;;;;81.42;42.90;;;;;;;-0.30;72.94;97600.95;1697120;84;25724;-90
2022/03/08 05:27:24;;;;;;;71.35;38.25;;;;;;;-0.33;72.85;97603.04;1697462;84;26068;-90
2022/03/08 05:29:51;;;;;;;65.95;39.78;;;;;;;-0.45;72.80;97597.03;1697415;84;25740;-90
2022/03/08 05:32:17;;;;;;;63.95;34.08;;;;;;;-0.46;72.83;97598.00;1697363;84;28118;-90
2022/03/08 05:34:44;;;;;;;56.53;32.45;;;;;;;-0.52;72.65;97603.39;1697187;84;25674;-89
2022/03/08 05:37:11;;;;;;;59.53;32.85;;;;;;;-0.63;72.71;97606.16;1697440;83;25765;-89
2022/03/08 05:39:37;;;;;;;58.78;32.17;;;;;;;-0.72;72.92;97613.10;1697360;84;26066;-89
2022/03/08 05:42:05;;;;;;;65.95;36.53;;;;;;;-0.77;73.04;97619.31;1686385;83;25757;-89
2022/03/08 05:44:31;;;;;;;66.12;36.75;;;;;;;-0.82;72.98;97616.70;1673062;85;27691;-88
2022/03/08 05:46:58;;;;;;;68.87;37.33;;;;;;;-0.83;73.08;97619.00;1672429;85;25281;-89
2022/03/08 05:49:25;;;;;;;72.32;39.85;;;;;;;-0.81;73.17;97619.22;1672347;85;25756;-89
2022/03/08 05:51:51;;;;;;;76.17;39.40;;;;;;;-0.82;73.19;97621.52;1672650;84;26040;-88
2022/03/08 05:54:18;;;;;;;78.25;40.83;;;;;;;-0.79;73.20;97625.72;1672674;85;25778;-88
2022/03/08 05:56:44;;;;;;;79.58;42.70;;;;;;;-0.77;73.21;97622.45;1672615;85;27369;-89
2022/03/08 05:59:11;;;;;;;74.53;41.40;;;;;;;-0.71;73.22;97628.52;1672649;85;25743;-88
2022/03/08 06:01:38;;;;;;;75.05;41.08;;;;;;;-0.75;73.10;97632.44;1672631;85;25726;-88
2022/03/08 06:04:04;;;;;;;76.17;42.27;;;;;;;-0.80;73.12;97631.99;1672718;84;26889;-89
2022/03/08 06:06:31;;;;;;;72.85;41.50;;;;;;;-0.84;73.25;97635.39;1672738;85;25607;-88
2022/03/08 06:08:57;;;;;;;70.75;37.50;;;;;;;-0.85;73.35;97635.06;1672593;85;27424;-89
2022/03/08 06:11:24;;;;;;;67.95;37.88;;;;;;;-0.85;73.21;97635.55;1672651;84;25817;-88
2022/03/08 06:13:52;;;;;;;70.42;39.08;;;;;;;-0.93;73.36;97632.23;1672644;85;25748;-88
2022/03/08 06:16:18;;;;;;;67.32;38.35;;;;;;;-0.98;73.40;97629.64;1672672;85;26694;-88
2022/03/08 06:18:45;;;;;;;64.30;33.10;;;;;;;-0.98;73.59;97627.00;1672703;85;25730;-88
2022/03/08 06:21:12;;;;;;;66.62;35.75;;;;;;;-0.98;73.54;97627.00;1672741;85;27437;-88
2022/03/08 06:23:38;;;;;;;70.35;37.15;;;;;;;-1.03;73.59;97632.69;1672293;85;25706;-88
2022/03/08 06:26:05;;;;;;;66.45;36.20;;;;;;;-1.04;73.56;97626.19;1672793;85;25713;-88
2022/03/08 06:28:33;;;;;;;73.05;36.83;;;;;;;-1.03;73.66;97637.14;1665183;85;25997;-89
2022/03/08 06:30:59;;;;;;;62.60;35.63;;;;;;;-1.03;73.72;97636.66;1676874;85;25286;-89
2022/03/08 06:33:26;;;;;;;66.65;37.55;;;;;;;-1.04;73.62;97635.47;1704627;84;27439;-88
2022/03/08 06:35:53;;;;;;;66.90;35.52;;;;;;;-1.06;73.68;97638.73;1704761;84;25865;-88
2022/03/08 06:38:19;;;;;;;68.80;39.15;;;;;;;-1.07;73.80;97637.05;1705025;84;25727;-88
2022/03/08 06:40:48;;;;;;;80.03;43.85;;;;;;;-1.03;73.92;97638.47;1704605;84;27050;-88
2022/03/08 06:43:14;;;;;;;86.35;45.95;;;;;;;-0.93;73.98;97638.02;1695795;82;25503;-88
2022/03/08 06:45:41;;;;;;;94.83;48.05;;;;;;;-0.87;73.95;97643.63;1687651;83;27505;-87
2022/03/08 06:48:09;;;;;;;94.32;50.10;;;;;;;-0.78;73.93;97641.98;1687236;83;25859;-87
2022/03/08 06:50:36;;;;;;;89.35;49.27;;;;;;;-0.70;73.88;97643.45;1687254;85;25620;-87
2022/03/08 06:53:03;;;;;;;89.90;51.83;;;;;;;-0.63;73.79;97645.94;1687163;85;25974;-88
2022/03/08 06:55:29;;;;;;;96.20;51.20;;;;;;;-0.59;73.66;97651.30;1687778;85;25767;-88
2022/03/08 06:57:56;;;;;;;91.28;50.48;;;;;;;-0.58;73.58;97649.00;1687586;85;27377;-88
2022/03/08 07:00:23;;;;;;;90.47;48.85;;;;;;;-0.58;73.64;97654.30;1687071;85;25282;-88
2022/03/08 07:02:49;;;;;;;91.70;48.20;;;;;;;-0.60;73.62;97655.41;1687362;85;25489;-88
2022/03/08 07:05:16;;;;;;;97.72;49.45;;;;;;;-0.61;73.63;97653.27;1687195;83;26147;-88
2022/03/08 07:07:42;;;;;;;96.20;51.70;;;;;;;-0.62;73.62;97652.91;1687293;85;25742;-88
2022/03/08 07:10:09;;;;;;;98.40;50.95;;;;;;;-0.65;73.61;97658.48;1687164;85;27175;-88
2022/03/08 07:12:36;;;;;;;97.75;48.08;;;;;;;-0.62;73.59;97659.55;1687055;85;25906;-88
2022/03/08 07:15:03;;;;;;;84.65;45.40;;;;;;;-0.65;73.52;97659.80;1687176;85;25716;-89
2022/03/08 07:17:30;;;;;;;82.20;43.83;;;;;;;-0.67;73.55;97675.00;1687186;83;26290;-87
2022/03/08 07:19:57;;;;;;;83.50;45.12;;;;;;;-0.66;73.63;97674.52;1687267;85;26050;-88
2022/03/08 07:22:23;;;;;;;82.10;44.98;;;;;;;-0.70;73.57;97672.61;1687154;85;27318;-88
2022/03/08 07:24:50;;;;;;;74.92;41.18;;;;;;;-0.78;73.64;97677.76;1687113;85;25762;-88
2022/03/08 07:27:17;;;;;;;70.83;37.55;;;;;;;-0.76;73.80;97674.01;1687139;83;25719;-88
2022/03/08 07:29:46;;;;;;;62.05;34.43;;;;;;;-0.76;73.78;97676.66;1686967;85;26068;-88
2022/03/08 07:32:12;;;;;;;66.70;37.73;;;;;;;-0.82;73.77;97676.34;1687349;85;27295;-88
2022/03/08 07:34:39;;;;;;;61.15;33.30;;;;;;;-0.83;73.87;97668.87;1687183;85;27366;-88
2022/03/08 07:37:05;;;;;;;61.58;35.30;;;;;;;-0.85;73.85;97673.98;1687228;85;25754;-89
2022/03/08 07:39:32;;;;;;;64.92;35.78;;;;;;;-0.96;73.87;97674.05;1687491;85;25300;-89
2022/03/08 07:41:59;;;;;;;63.17;33.08;;;;;;;-0.95;74.12;97678.38;1690287;83;25967;-88
2022/03/08 07:44:26;;;;;;;49.20;27.90;;;;;;;-0.92;74.19;97678.12;1713002;83;25815;-88
2022/03/08 07:46:52;;;;;;;45.92;27.67;;;;;;;-0.88;74.17;97684.84;1712308;83;27394;-86
2022/03/08 07:49:19;;;;;;;51.85;27.67;;;;;;;-0.89;74.11;97688.46;1711954;83;25847;-88
2022/03/08 07:51:46;;;;;;;48.00;25.85;;;;;;;-0.91;74.01;97683.77;1712492;83;25752;-88
2022/03/08 07:54:13;;;;;;;39.92;23.62;;;;;;;-0.91;74.04;97689.08;1712317;83;26153;-87
2022/03/08 07:56:40;;;;;;;38.30;22.67;;;;;;;-0.93;74.04;97689.69;1712642;83;25806;-88
2022/03/08 07:59:06;;;;;;;40.80;22.25;;;;;;;-0.90;74.14;97684.97;1710561;83;27376;-88
2022/03/08 08:01:33;;;;;;;40.73;22.60;;;;;;;-0.81;74.20;97679.34;1692910;83;25723;-88
2022/03/08 08:04:00;;;;;;;38.25;21.75;;;;;;;-0.76;74.14;97673.17;1686270;83;25696;-88
2022/03/08 08:06:26;;;;;;;35.33;20.35;;;;;;;-0.68;74.12;97673.33;1686153;84;25929;-88
2022/03/08 08:08:53;;;;;;;25.10;16.75;;;;;;;-0.53;73.98;97683.91;1688882;82;25693;-88
2022/03/08 08:11:20;;;;;;;29.77;17.50;;;;;;;-0.48;73.79;97681.67;1711381;82;28106;-88
2022/03/08 08:13:48;;;;;;;24.85;14.53;;;;;;;-0.50;73.62;97684.98;1707422;82;25278;-88
2022/03/08 08:16:17;;;;;;;24.92;14.80;;;;;;;-0.47;73.63;97683.84;1711787;83;25822;-87
2022/03/08 08:18:44;;;;;;;32.35;19.45;;;;;;;-0.42;73.63;97681.14;1712461;83;26015;-86
2022/03/08 08:21:11;;;;;;;38.85;22.02;;;;;;;-0.29;73.63;97686.69;1712614;83;25742;-86
2022/03/08 08:23:37;;;;;;;41.65;23.02;;;;;;;-0.19;73.52;97676.44;1712472;83;28262;-86
2022/03/08 08:26:04;;;;;;;49.00;26.17;;;;;;;-0.15;73.43;97667.72;1712488;83;25664;-85
2022/03/08 08:28:30;;;;;;;42.50;24.92;;;;;;;-0.02;73.39;97665.64;1712463;83;25763;-85
2022/03/08 08:30:57;;;;;;;45.35;26.17;;;;;;;0.12;73.32;97667.84;1712661;83;26077;-86
2022/03/08 08:33:27;;;;;;;45.30;27.60;;;;;;;0.19;73.15;97657.03;1714430;83;26283;-86
2022/03/08 08:36:18;;;;;;;45.25;26.82;;;;;;;0.25;72.92;97656.45;1692068;83;25948;-90
2022/03/08 08:39:14;;;;;;;52.62;29.67;;;;;;;0.26;72.79;97665.27;1715418;83;25626;-87
2022/03/08 08:41:57;;;;;;;49.05;30.90;;;;;;;0.03;72.56;97666.53;1638656;86;25889;-89
2022/03/08 08:44:33;;;;;;;51.75;30.15;;;;;;;-0.10;72.92;97674.27;1635662;87;26080;-87
2022/03/08 08:47:03;;;;;;;53.55;29.55;;;;;;;-0.20;72.98;97677.89;1602485;88;25816;-86
2022/03/08 08:49:30;;;;;;;53.55;29.10;;;;;;;-0.31;72.99;97688.62;1624438;88;27419;-86
2022/03/08 08:51:57;;;;;;;48.02;27.93;;;;;;;-0.34;73.26;97693.71;1603161;89;25771;-86
2022/03/08 08:54:25;;;;;;;48.25;29.45;;;;;;;-0.27;73.19;97698.00;1624390;88;25832;-87
2022/03/08 08:56:52;;;;;;;53.70;32.13;;;;;;;-0.30;73.20;97695.61;1602637;89;26236;-87
2022/03/08 08:59:19;;;;;;;58.08;31.82;;;;;;;-0.26;73.27;97690.40;1633841;87;25751;-87
2022/03/08 09:01:45;;;;;;;56.23;32.10;;;;;;;-0.23;73.32;97695.41;1668722;84;27379;-87
2022/03/08 09:04:12;;;;;;;52.40;30.57;;;;;;;-0.11;73.44;97687.67;1668416;85;25799;-88
2022/03/08 09:06:40;;;;;;;58.98;31.15;;;;;;;0.03;73.31;97688.59;1668400;85;25876;-88
2022/03/08 09:09:06;;;;;;;54.20;29.60;;;;;;;0.13;73.11;97685.45;1668576;85;26808;-88
2022/03/08 09:11:33;;;;;;;65.12;32.83;;;;;;;0.25;72.92;97691.46;1682960;81;25755;-87
2022/03/08 09:14:00;;;;;;;58.45;32.95;;;;;;;0.33;72.80;97699.09;1751483;81;27428;-87
2022/03/08 09:16:27;;;;;;;64.53;34.55;;;;;;;0.24;72.55;97695.93;1751247;81;25771;-87
2022/03/08 09:18:54;;;;;;;56.28;32.08;;;;;;;0.24;72.72;97702.57;1715374;83;26301;-86
2022/03/08 09:21:20;;;;;;;64.82;34.98;;;;;;;0.23;72.73;97704.91;1710563;83;25985;-86
2022/03/08 09:23:47;;;;;;;57.17;31.73;;;;;;;0.26;72.86;97701.11;1704711;84;25712;-87
2022/03/08 09:26:13;;;;;;;55.25;30.40;;;;;;;0.39;72.75;97703.48;1704508;83;27366;-86
2022/03/08 09:28:40;;;;;;;58.30;31.17;;;;;;;0.52;72.70;97697.39;1704479;83;25734;-86
2022/03/08 09:31:09;;;;;;;54.98;30.60;;;;;;;0.66;72.52;97699.13;1704636;84;25788;-87
2022/03/08 09:33:36;;;;;;;46.55;28.55;;;;;;;0.71;72.40;97698.70;1704608;83;26034;-87
2022/03/08 09:36:03;;;;;;;54.38;28.62;;;;;;;0.82;72.29;97708.33;1704560;84;25685;-87
2022/03/08 09:38:29;;;;;;;46.92;26.25;;;;;;;0.87;71.94;97710.89;1704663;83;28241;-87
2022/03/08 09:40:56;;;;;;;44.03;25.72;;;;;;;0.93;71.74;97711.66;1704540;83;25734;-87
2022/03/08 09:43:23;;;;;;;41.83;24.37;;;;;;;1.03;71.63;97704.49;1707755;83;25912;-87
2022/03/08 09:45:50;;;;;;;42.03;23.75;;;;;;;1.10;71.35;97710.05;1712075;83;26850;-87
2022/03/08 09:48:19;;;;;;;34.98;19.15;;;;;;;1.08;71.08;97711.55;1712219;83;25775;-86
2022/03/08 09:50:46;;;;;;;43.68;23.95;;;;;;;1.06;71.09;97708.69;1712251;83;26966;-87
2022/03/08 09:53:12;;;;;;;38.98;24.10;;;;;;;1.04;71.08;97716.80;1711985;83;25253;-87
2022/03/08 09:55:39;;;;;;;42.67;23.38;;;;;;;1.15;71.02;97718.45;1692129;83;25741;-88
2022/03/08 09:58:06;;;;;;;45.60;24.80;;;;;;;1.25;70.85;97721.91;1712132;83;26776;-88
2022/03/08 10:00:33;;;;;;;41.88;23.95;;;;;;;1.36;70.72;97726.20;1712246;83;25689;-87
2022/03/08 10:03:01;;;;;;;46.15;25.12;;;;;;;1.40;70.68;97725.78;1712087;83;27507;-86
2022/03/08 10:05:49;;;;;;;49.93;27.62;;;;;;;1.51;70.50;97724.74;1712040;83;26372;-86
2022/03/08 10:08:19;;;;;;;39.73;23.42;;;;;;;1.61;70.26;97724.69;1706287;83;25694;-87
2022/03/08 10:10:51;;;;;;;43.10;25.02;;;;;;;1.67;69.97;97724.12;1710507;83;26253;-87
2022/03/08 10:13:19;;;;;;;39.35;23.22;;;;;;;1.60;69.89;97726.52;1697493;84;25685;-87
2022/03/08 10:15:46;;;;;;;35.20;21.10;;;;;;;1.58;69.93;97722.31;1691892;84;27383;-86
2022/03/08 10:18:13;;;;;;;39.70;20.75;;;;;;;1.69;69.80;97713.64;1692001;84;25739;-87
2022/03/08 10:20:40;;;;;;;35.13;20.05;;;;;;;1.81;69.52;97721.77;1680635;84;25861;-88
2022/03/08 10:23:13;;;;;;;31.25;18.37;;;;;;;1.93;69.17;97718.93;1692356;84;25983;-87
2022/03/08 10:25:41;;;;;;;30.95;18.55;;;;;;;2.01;68.73;97721.67;1692470;84;25711;-87
2022/03/08 10:28:09;;;;;;;27.35;17.32;;;;;;;2.08;68.63;97716.91;1692311;84;27384;-87
2022/03/08 10:30:48;;;;;;;32.58;15.98;;;;;;;2.20;68.43;97726.02;1692287;84;26093;-89
2022/03/08 10:33:19;;;;;;;29.10;17.02;;;;;;;2.29;68.10;97721.97;1692972;84;25779;-87
2022/03/08 10:35:44;;;;;;;28.77;17.30;;;;;;;2.33;68.10;97721.15;1692890;83;26596;-87
2022/03/08 10:38:14;;;;;;;29.67;18.15;;;;;;;2.37;67.73;97727.36;1692329;84;25799;-87
2022/03/08 10:40:42;;;;;;;31.33;16.90;;;;;;;2.44;67.43;97721.76;1692150;84;27389;-87
2022/03/08 10:43:13;;;;;;;30.35;16.73;;;;;;;2.48;67.37;97721.80;1690931;83;25782;-88
2022/03/08 10:45:47;;;;;;;28.15;15.10;;;;;;;2.52;67.01;97717.02;1688093;85;25258;-86
2022/03/08 10:48:17;;;;;;;24.32;12.95;;;;;;;2.55;67.01;97711.35;1689610;85;26033;-87
2022/03/08 10:50:44;;;;;;;21.52;12.73;;;;;;;2.51;66.41;97710.84;1752348;81;25316;-87
2022/03/08 10:53:15;;;;;;;24.43;12.47;;;;;;;2.58;66.28;97718.20;1748730;81;27507;-87
2022/03/08 10:55:50;;;;;;;20.00;12.45;;;;;;;2.60;65.83;97709.08;1714488;83;25900;-87
2022/03/08 10:58:19;;;;;;;26.40;12.88;;;;;;;2.72;65.63;97707.84;1715796;83;25276;-89
2022/03/08 11:00:53;;;;;;;20.68;12.10;;;;;;;2.88;65.82;97695.14;1715431;83;25932;-89
2022/03/08 11:03:23;;;;;;;20.15;12.20;;;;;;;3.22;65.58;97696.02;1715012;83;25286;-88
2022/03/08 11:06:04;;;;;;;19.20;10.30;;;;;;;3.84;65.54;97687.27;1680974;85;27384;-91
2022/03/08 11:08:27;;;;;;;19.73;11.50;;;;;;;4.31;64.71;97682.70;1679884;85;26278;-88
2022/03/08 11:10:55;;;;;;;19.37;9.63;;;;;;;4.43;63.63;97685.38;1647007;87;25796;-88
2022/03/08 11:13:21;;;;;;;15.43;10.30;;;;;;;4.43;63.32;97677.86;1645048;86;26358;-88
2022/03/08 11:15:48;;;;;;;18.75;10.72;;;;;;;4.22;62.67;97673.00;1644975;87;25772;-88
2022/03/08 11:18:17;;;;;;;30.68;17.27;;;;;;;4.14;62.50;97667.63;1646011;87;28035;-88